createdAt,value
2023-02-03T00:02:21.481Z,95.45
2023-02-03T00:06:25.138Z,95.50
2023-02-03T00:10:28.656Z,96.19
2023-02-03T00:14:33.821Z,96.57
2023-02-03T00:18:39.323Z,96.08
2023-02-03T00:22:42.336Z,95.38
2023-02-03T00:26:45.198Z,94.93
2023-02-03T00:30:48.129Z,94.63
2023-02-03T00:34:52.684Z,94.55
2023-02-03T00:38:56.185Z,92.84
2023-02-03T00:42:59.337Z,91.32
2023-02-03T00:47:02.331Z,90.74
2023-02-03T00:51:07.564Z,92.22
2023-02-03T00:55:10.919Z,91.46
2023-02-03T00:59:14.084Z,91.56
2023-02-03T01:03:18.719Z,91.18
2023-02-03T01:07:23.386Z,90.62
2023-02-03T01:11:27.815Z,90.12
2023-02-03T01:15:30.897Z,91.54
2023-02-03T01:19:34.087Z,92.06
2023-02-03T01:23:39.528Z,90.56
2023-02-03T01:27:42.649Z,90.61
2023-02-03T01:31:48.563Z,91.40
2023-02-03T01:35:51.213Z,91.56
2023-02-03T01:39:55.553Z,91.83
2023-02-03T01:44:00.588Z,90.36
2023-02-03T01:48:03.369Z,90.62
2023-02-03T01:52:07.542Z,89.82
2023-02-03T01:56:13.539Z,90.65
2023-02-03T02:00:17.165Z,89.96
2023-02-03T02:04:21.205Z,90.60
2023-02-03T02:08:25.445Z,89.83
2023-02-03T02:12:30.034Z,90.35
2023-02-03T02:16:42.768Z,90.76
2023-02-03T02:21:35.895Z,90.25
2023-02-03T02:26:09.475Z,90.17
2023-02-03T02:30:50.908Z,89.16
2023-02-03T02:35:03.977Z,90.11
2023-02-03T02:39:16.876Z,90.35
2023-02-03T02:43:24.227Z,90.84
2023-02-03T02:47:27.469Z,90.55
2023-02-03T02:51:33.234Z,89.81
2023-02-03T02:55:41.204Z,90.32
2023-02-03T02:59:44.428Z,90.13
2023-02-03T03:03:47.993Z,90.78
2023-02-03T03:07:59.396Z,91.04
2023-02-03T03:12:09.410Z,91.35
2023-02-03T03:16:17.006Z,91.00
2023-02-03T03:20:26.370Z,91.31
2023-02-03T03:24:38.122Z,91.59
2023-02-03T03:28:48.573Z,91.89
2023-02-03T03:32:52.399Z,92.10
2023-02-03T03:37:02.249Z,92.19
2023-02-03T03:41:10.181Z,92.80
2023-02-03T03:45:20.321Z,94.17
2023-02-03T03:49:26.089Z,94.95
2023-02-03T03:53:31.559Z,94.33
2023-02-03T03:57:41.136Z,94.25
2023-02-03T04:01:45.037Z,94.66
2023-02-03T04:05:48.078Z,95.51
2023-02-03T04:09:51.335Z,94.82
2023-02-03T04:13:55.896Z,94.46
2023-02-03T04:17:59.063Z,95.23
2023-02-03T04:22:02.051Z,95.51
2023-02-03T04:26:05.082Z,95.36
2023-02-03T04:30:11.934Z,94.93
2023-02-03T04:34:14.950Z,94.92
2023-02-03T04:38:17.935Z,94.42
2023-02-03T04:42:21.193Z,94.71
2023-02-03T04:46:25.622Z,95.20
2023-02-03T04:50:36.988Z,94.70
2023-02-03T04:54:39.790Z,95.35
2023-02-03T04:58:45.659Z,96.78
2023-02-03T05:02:50.063Z,99.68
2023-02-03T05:06:53.316Z,100.00
2023-02-03T05:10:56.265Z,100.00
2023-02-03T05:14:59.133Z,100.00
2023-02-03T05:19:03.965Z,100.00
2023-02-03T05:23:06.922Z,100.00
2023-02-03T05:27:09.878Z,100.00
2023-02-03T05:31:12.869Z,100.00
2023-02-03T05:35:18.053Z,100.00
2023-02-03T05:39:21.018Z,100.00
2023-02-03T05:43:24.167Z,100.00
2023-02-03T05:47:30.495Z,100.00
2023-02-03T05:51:34.785Z,100.00
2023-02-03T05:55:38.278Z,100.00
2023-02-03T05:59:41.220Z,100.00
2023-02-03T06:03:46.165Z,100.00
2023-02-03T06:07:51.700Z,100.00
2023-02-03T06:11:54.927Z,100.00
2023-02-03T06:15:58.042Z,100.00
2023-02-03T06:20:01.089Z,100.00
2023-02-03T06:24:05.968Z,100.00
2023-02-03T06:28:09.155Z,100.00
2023-02-03T06:32:14.037Z,100.00
2023-02-03T06:36:16.926Z,100.00
2023-02-03T06:40:25.009Z,100.00
2023-02-03T06:44:28.477Z,100.00
2023-02-03T06:48:31.492Z,100.00
2023-02-03T06:52:34.495Z,100.00
2023-02-03T06:56:39.469Z,100.00
2023-02-03T07:00:42.606Z,100.00
2023-02-03T07:04:46.312Z,99.62
2023-02-03T07:08:49.256Z,95.94
2023-02-03T07:12:53.559Z,96.24
2023-02-03T07:16:56.519Z,93.29
2023-02-03T07:20:59.505Z,91.69
2023-02-03T07:25:02.072Z,92.62
2023-02-03T07:29:06.775Z,90.22
2023-02-03T07:33:15.052Z,90.06
2023-02-03T07:37:18.114Z,87.64
2023-02-03T07:41:21.337Z,84.87
2023-02-03T07:45:28.147Z,83.23
2023-02-03T07:49:32.001Z,80.81
2023-02-03T07:53:35.550Z,79.70
2023-02-03T07:57:43.655Z,76.02
2023-02-03T08:01:49.601Z,76.41
2023-02-03T08:05:53.667Z,75.96
2023-02-03T08:09:56.998Z,78.98
2023-02-03T08:14:00.558Z,75.71
2023-02-03T08:18:09.474Z,76.65
2023-02-03T08:22:16.293Z,78.31
2023-02-03T08:26:44.275Z,78.20
2023-02-03T08:30:50.685Z,75.80
2023-02-03T08:34:56.192Z,75.29
2023-02-03T08:38:59.541Z,74.64
2023-02-03T08:43:02.518Z,72.25
2023-02-03T08:47:05.715Z,72.49
2023-02-03T08:51:13.152Z,71.18
2023-02-03T08:55:15.935Z,69.24
2023-02-03T08:59:19.804Z,71.00
2023-02-03T09:03:22.929Z,70.47
2023-02-03T09:07:28.255Z,70.53
2023-02-03T09:11:31.041Z,72.40
2023-02-03T09:15:36.696Z,73.47
2023-02-03T09:19:40.210Z,72.71
2023-02-03T09:23:46.531Z,70.16
2023-02-03T09:27:49.458Z,73.35
2023-02-03T09:31:55.693Z,71.53
2023-02-03T09:35:59.803Z,72.08
2023-02-03T09:40:04.367Z,70.64
2023-02-03T09:44:15.821Z,69.13
2023-02-03T09:48:25.307Z,68.24
2023-02-03T09:52:32.663Z,68.30
2023-02-03T09:56:38.358Z,69.31
2023-02-03T10:00:44.864Z,70.64
2023-02-03T10:04:58.677Z,70.77
2023-02-03T10:09:24.601Z,71.16
2023-02-03T10:13:41.771Z,70.93
2023-02-03T10:17:50.116Z,69.53
2023-02-03T10:21:59.027Z,71.86
2023-02-03T10:26:07.022Z,72.14
2023-02-03T10:30:21.766Z,70.94
2023-02-03T10:34:27.084Z,71.17
2023-02-03T10:38:42.530Z,71.39
2023-02-03T10:43:06.069Z,70.76
2023-02-03T10:47:29.550Z,73.48
2023-02-03T10:51:38.836Z,71.42
2023-02-03T10:55:45.730Z,71.81
2023-02-03T10:59:50.573Z,72.55
2023-02-03T11:04:04.170Z,72.32
2023-02-03T11:08:16.306Z,72.60
2023-02-03T11:12:21.232Z,74.03
2023-02-03T11:16:25.940Z,73.76
2023-02-03T11:20:33.783Z,73.97
2023-02-03T11:24:41.711Z,73.51
2023-02-03T11:28:50.332Z,71.83
2023-02-03T11:32:54.046Z,74.31
2023-02-03T11:37:12.129Z,72.42
2023-02-03T11:41:23.050Z,73.62
2023-02-03T11:45:28.822Z,72.78
2023-02-03T11:49:51.693Z,71.91
2023-02-03T11:54:07.922Z,69.66
2023-02-03T11:58:41.127Z,70.46
2023-02-03T12:03:19.274Z,71.08
2023-02-03T12:07:52.587Z,69.92
2023-02-03T12:12:25.941Z,73.11
2023-02-03T12:16:50.101Z,74.23
2023-02-03T12:21:05.589Z,73.00
2023-02-03T12:25:19.817Z,73.15
2023-02-03T12:29:32.043Z,73.83
2023-02-03T12:33:43.204Z,76.84
2023-02-03T12:37:51.501Z,76.86
2023-02-03T12:42:02.933Z,79.47
2023-02-03T12:46:16.317Z,82.08
2023-02-03T12:50:23.498Z,83.64
2023-02-03T12:54:36.338Z,86.97
2023-02-03T12:58:42.722Z,89.97
2023-02-03T13:03:00.504Z,91.51
2023-02-03T13:07:14.379Z,91.63
2023-02-03T13:11:24.968Z,94.42
2023-02-03T13:15:32.741Z,94.54
2023-02-03T13:19:42.569Z,96.10
2023-02-03T13:23:48.314Z,96.57
2023-02-03T13:28:00.703Z,97.38
2023-02-03T13:32:15.945Z,98.46
2023-02-03T13:36:45.519Z,100.00
2023-02-03T13:40:59.319Z,100.00
2023-02-03T13:45:14.842Z,100.00
2023-02-03T13:49:25.867Z,100.00
2023-02-03T13:53:36.609Z,100.00
2023-02-03T13:57:40.382Z,100.00
2023-02-03T14:01:44.776Z,100.00
2023-02-03T14:05:51.131Z,100.00
2023-02-03T14:10:22.175Z,100.00
2023-02-03T14:14:59.013Z,100.00
2023-02-03T14:19:01.876Z,100.00
2023-02-03T14:23:12.586Z,100.00
2023-02-03T14:27:22.919Z,100.00
2023-02-03T14:31:29.011Z,100.00
2023-02-03T14:35:35.128Z,100.00
2023-02-03T14:39:59.703Z,100.00
2023-02-03T14:44:11.132Z,100.00
2023-02-03T14:48:30.197Z,100.00
2023-02-03T14:52:54.750Z,100.00
2023-02-03T14:57:19.909Z,100.00
2023-02-03T15:01:48.664Z,100.00
2023-02-03T15:05:54.068Z,100.00
2023-02-03T15:09:59.271Z,100.00
2023-02-03T15:14:21.866Z,100.00
2023-02-03T15:18:32.037Z,100.00
2023-02-03T15:22:40.625Z,100.00
2023-02-03T15:26:48.847Z,100.00
2023-02-03T15:30:58.553Z,100.00
2023-02-03T15:35:06.433Z,100.00
2023-02-03T15:39:23.296Z,100.00
2023-02-03T15:43:34.344Z,100.00
2023-02-03T15:47:42.094Z,100.00
2023-02-03T15:51:51.393Z,100.00
2023-02-03T15:56:00.166Z,100.00
2023-02-03T16:00:10.164Z,100.00
2023-02-03T16:04:14.829Z,100.00
2023-02-03T16:08:35.904Z,100.00
2023-02-03T16:12:42.882Z,100.00
2023-02-03T16:17:04.465Z,100.00
2023-02-03T16:21:08.561Z,100.00
2023-02-03T16:25:20.989Z,100.00
2023-02-03T16:29:48.332Z,100.00
2023-02-03T16:34:09.619Z,100.00
2023-02-03T16:38:35.333Z,100.00
2023-02-03T16:42:59.020Z,100.00
2023-02-03T16:47:20.826Z,100.00
2023-02-03T16:51:23.931Z,100.00
2023-02-03T16:55:27.685Z,100.00
2023-02-03T16:59:35.917Z,100.00
2023-02-03T17:03:40.456Z,100.00
2023-02-03T17:07:43.474Z,100.00
2023-02-03T17:11:46.667Z,100.00
2023-02-03T17:15:53.969Z,100.00
2023-02-03T17:19:57.334Z,100.00
2023-02-03T17:24:02.669Z,100.00
2023-02-03T17:28:06.211Z,100.00
2023-02-03T17:32:15.286Z,100.00
2023-02-03T17:36:21.904Z,100.00
2023-02-03T17:53:27.535Z,100.00
2023-02-03T17:57:34.554Z,100.00
2023-02-03T18:01:39.276Z,100.00
2023-02-03T18:05:51.816Z,100.00
2023-02-03T18:10:00.635Z,100.00
2023-02-03T18:14:05.385Z,100.00
2023-02-03T18:18:08.458Z,100.00
2023-02-03T18:22:12.853Z,100.00
2023-02-03T18:26:16.028Z,100.00
2023-02-03T18:30:21.943Z,100.00
2023-02-03T18:34:25.949Z,100.00
2023-02-03T18:38:33.261Z,100.00
2023-02-03T18:42:36.877Z,100.00
2023-02-03T18:46:40.402Z,100.00
2023-02-03T18:50:45.040Z,100.00
2023-02-03T18:54:49.744Z,100.00
2023-02-03T18:58:53.186Z,100.00
2023-02-03T19:03:06.203Z,100.00
2023-02-03T19:07:09.581Z,100.00
2023-02-03T19:11:15.463Z,100.00
2023-02-03T19:15:20.774Z,100.00
2023-02-03T19:19:24.084Z,100.00
2023-02-03T19:23:27.461Z,100.00
2023-02-03T19:27:32.844Z,100.00
2023-02-03T19:31:36.996Z,100.00
2023-02-03T19:35:40.236Z,100.00
2023-02-03T19:39:47.038Z,100.00
2023-02-03T19:43:52.361Z,100.00
2023-02-03T19:47:55.582Z,100.00
2023-02-03T19:51:59.016Z,100.00
2023-02-03T19:56:02.226Z,100.00
2023-02-03T20:00:08.929Z,100.00
2023-02-03T20:04:15.906Z,100.00
2023-02-03T20:08:27.967Z,100.00
2023-02-03T20:12:51.255Z,100.00
2023-02-03T20:16:59.292Z,100.00
2023-02-03T20:21:07.334Z,100.00
2023-02-03T20:25:19.659Z,100.00
2023-02-03T20:29:25.811Z,100.00
2023-02-03T20:33:32.096Z,100.00
2023-02-03T20:37:36.346Z,100.00
2023-02-03T20:41:41.139Z,100.00
2023-02-03T20:45:44.608Z,100.00
2023-02-03T20:49:50.046Z,100.00
2023-02-03T20:53:53.622Z,100.00
2023-02-03T20:57:57.229Z,100.00
2023-02-03T21:02:08.491Z,100.00
2023-02-03T21:06:17.670Z,100.00
2023-02-03T21:10:22.423Z,100.00
2023-02-03T21:14:30.659Z,100.00
2023-02-03T21:18:41.269Z,100.00
2023-02-03T21:22:45.960Z,100.00
2023-02-03T21:26:49.808Z,100.00
2023-02-03T21:30:52.768Z,100.00
2023-02-03T21:34:56.810Z,100.00
2023-02-03T21:39:01.615Z,100.00
2023-02-03T21:43:04.878Z,100.00
2023-02-03T21:47:13.293Z,100.00
2023-02-03T21:51:19.288Z,100.00
2023-02-03T21:55:23.993Z,100.00
2023-02-03T21:59:42.471Z,100.00
2023-02-03T22:03:48.785Z,100.00
2023-02-03T22:07:51.860Z,100.00
2023-02-03T22:11:56.598Z,100.00
2023-02-03T22:16:00.306Z,100.00
2023-02-03T22:20:05.387Z,100.00
2023-02-03T22:24:08.702Z,100.00
2023-02-03T22:28:15.796Z,100.00
2023-02-03T22:32:20.947Z,100.00
2023-02-03T22:36:24.301Z,100.00
2023-02-03T22:40:28.324Z,100.00
2023-02-03T22:44:35.335Z,100.00
2023-02-03T22:48:38.414Z,100.00
2023-02-03T22:52:42.116Z,100.00
2023-02-03T22:56:44.949Z,100.00
2023-02-03T23:00:49.590Z,100.00
2023-02-03T23:04:52.958Z,100.00
2023-02-03T23:08:57.096Z,100.00
2023-02-03T23:13:01.855Z,100.00
2023-02-03T23:17:06.404Z,100.00
2023-02-03T23:21:09.688Z,100.00
2023-02-03T23:25:14.013Z,100.00
2023-02-03T23:29:17.441Z,100.00
2023-02-03T23:33:22.852Z,100.00
2023-02-03T23:37:26.406Z,100.00
2023-02-03T23:41:29.288Z,100.00
2023-02-03T23:45:32.560Z,100.00
2023-02-03T23:49:37.185Z,100.00
2023-02-03T23:53:40.946Z,100.00
2023-02-03T23:57:44.891Z,100.00
